Time;durP1;ratioP1;P1;durP2;ratioP2;P2;SDS_P1;SDS_P2;PMS_P1;PMS_P2;Temp;Humidity;BMP_temperature;BMP_pressure;BME280_temperature;BME280_humidity;BME280_pressure;Samples;Min_cycle;Max_cycle;Signal;HPM_P1;HPM_P2
2021/01/31 00:00:34;;;;;;;15.65;9.60;;;0.60;99.90;;;;;;5062414;28;20540;-65
2021/01/31 00:03:04;;;;;;;15.75;9.52;;;0.60;99.90;;;;;;5062898;28;20369;-65
2021/01/31 00:05:31;;;;;;;16.02;10.23;;;0.60;99.90;;;;;;5068648;28;20044;-64
2021/01/31 00:07:58;;;;;;;16.10;10.02;;;0.50;99.90;;;;;;5068573;28;20052;-64
2021/01/31 00:10:30;;;;;;;14.60;9.95;;;0.50;99.90;;;;;;5072335;28;20055;-64
2021/01/31 00:12:59;;;;;;;15.00;9.25;;;0.50;99.90;;;;;;5063334;28;20053;-65
2021/01/31 00:15:32;;;;;;;17.75;10.80;;;0.40;99.90;;;;;;5071157;28;20048;-65
2021/01/31 00:17:59;;;;;;;17.73;10.68;;;0.40;99.90;;;;;;5072543;28;20060;-64
2021/01/31 00:20:28;;;;;;;18.55;10.70;;;0.40;99.90;;;;;;5068166;28;20051;-66
2021/01/31 00:22:55;;;;;;;17.30;9.85;;;0.40;99.90;;;;;;5063456;28;20118;-66
2021/01/31 00:25:22;;;;;;;20.67;10.93;;;0.40;99.90;;;;;;5070896;28;20058;-66
2021/01/31 00:27:49;;;;;;;17.50;10.82;;;0.40;99.90;;;;;;5072898;28;20428;-65
2021/01/31 00:30:23;;;;;;;16.42;10.43;;;0.40;99.90;;;;;;5073514;28;20044;-66
2021/01/31 00:32:50;;;;;;;16.95;9.75;;;0.40;99.90;;;;;;5070843;28;20047;-66
2021/01/31 00:35:20;;;;;;;17.02;10.10;;;0.40;99.90;;;;;;5072570;28;20056;-65
2021/01/31 00:37:47;;;;;;;16.30;10.10;;;0.30;99.90;;;;;;5070711;28;20051;-64
2021/01/31 00:40:15;;;;;;;18.05;10.98;;;0.30;99.90;;;;;;5072627;28;20128;-66
2021/01/31 00:42:42;;;;;;;17.13;9.70;;;0.40;99.90;;;;;;5071133;28;20068;-64
2021/01/31 00:45:11;;;;;;;16.88;10.55;;;0.40;99.90;;;;;;5072964;28;20052;-64
2021/01/31 00:47:37;;;;;;;18.45;10.75;;;0.40;99.90;;;;;;5057772;28;20607;-64
2021/01/31 00:50:05;;;;;;;16.90;10.50;;;0.40;99.90;;;;;;5065331;28;20067;-64
2021/01/31 00:52:31;;;;;;;19.38;10.40;;;0.40;99.90;;;;;;5072397;28;20044;-64
2021/01/31 00:54:57;;;;;;;26.00;13.13;;;0.40;99.90;;;;;;5066996;28;20074;-65
2021/01/31 00:57:24;;;;;;;16.13;9.70;;;0.40;99.90;;;;;;5060231;28;20048;-64
2021/01/31 00:59:50;;;;;;;16.30;10.18;;;0.40;99.90;;;;;;5067734;28;20074;-64
2021/01/31 01:02:20;;;;;;;18.23;10.23;;;0.40;99.90;;;;;;5072677;28;20048;-64
2021/01/31 01:04:48;;;;;;;17.50;9.40;;;0.30;99.90;;;;;;5072416;28;20126;-65
2021/01/31 01:07:17;;;;;;;17.23;9.90;;;0.30;99.90;;;;;;5071795;28;20502;-64
2021/01/31 01:09:45;;;;;;;17.52;10.23;;;0.30;99.90;;;;;;5072153;28;20139;-64
2021/01/31 01:12:13;;;;;;;18.77;10.82;;;0.30;99.90;;;;;;5070650;28;20040;-63
2021/01/31 01:14:40;;;;;;;19.02;10.48;;;0.30;99.90;;;;;;5071209;28;20399;-64
2021/01/31 01:17:07;;;;;;;17.63;10.57;;;0.30;99.90;;;;;;5071090;28;20045;-64
2021/01/31 01:19:33;;;;;;;17.95;10.38;;;0.40;99.90;;;;;;5072492;28;20044;-64
2021/01/31 01:22:00;;;;;;;18.20;9.95;;;0.40;99.90;;;;;;5071089;28;20418;-63
2021/01/31 01:24:26;;;;;;;18.65;10.68;;;0.40;99.90;;;;;;5072414;28;20075;-63
2021/01/31 01:26:53;;;;;;;17.02;9.50;;;0.40;99.90;;;;;;5071093;28;20053;-63
2021/01/31 01:29:19;;;;;;;15.35;10.23;;;0.40;99.90;;;;;;5072078;28;20049;-63
2021/01/31 01:31:46;;;;;;;16.80;9.70;;;0.40;99.90;;;;;;5071952;28;20059;-65
2021/01/31 01:34:12;;;;;;;16.23;10.13;;;0.30;99.90;;;;;;5072068;28;20055;-63
2021/01/31 01:36:39;;;;;;;18.30;10.43;;;0.30;99.90;;;;;;5071582;28;20049;-64
2021/01/31 01:39:06;;;;;;;16.58;10.45;;;0.40;99.90;;;;;;5072007;28;20045;-64
2021/01/31 01:41:50;;;;;;;17.58;10.77;;;0.30;99.90;;;;;;5071516;28;20044;-64
2021/01/31 01:44:16;;;;;;;17.90;10.70;;;0.30;99.90;;;;;;5071949;28;20067;-64
2021/01/31 01:46:50;;;;;;;18.63;10.70;;;0.30;99.90;;;;;;5071516;28;20052;-64
2021/01/31 01:49:24;;;;;;;17.80;10.05;;;0.30;99.90;;;;;;5072013;28;20071;-65
2021/01/31 01:51:58;;;;;;;17.85;10.15;;;0.30;99.90;;;;;;5057239;28;20372;-65
2021/01/31 01:54:32;;;;;;;16.05;10.13;;;0.30;99.90;;;;;;5068875;28;20052;-65
2021/01/31 01:57:05;;;;;;;17.58;10.73;;;0.40;99.90;;;;;;5057735;28;20044;-64
2021/01/31 01:59:35;;;;;;;16.83;9.77;;;0.40;99.90;;;;;;5071803;28;20505;-64
2021/01/31 02:02:05;;;;;;;15.93;10.05;;;0.40;99.90;;;;;;5070946;28;20048;-64
2021/01/31 02:04:32;;;;;;;17.33;10.40;;;0.40;99.90;;;;;;5071111;28;20049;-65
2021/01/31 02:06:58;;;;;;;20.77;11.55;;;0.40;99.90;;;;;;5066280;28;20504;-65
2021/01/31 02:09:26;;;;;;;18.02;10.60;;;0.30;99.90;;;;;;5071271;28;20044;-65
2021/01/31 02:11:58;;;;;;;20.90;11.45;;;0.40;99.90;;;;;;5068779;28;20048;-65
2021/01/31 02:14:26;;;;;;;;;;;0.40;99.90;;;;;;5061810;28;20467;-65
2021/01/31 02:17:01;;;;;;;18.50;9.90;;;0.40;99.90;;;;;;5070831;28;19927;-64
2021/01/31 02:19:52;;;;;;;16.30;10.30;;;0.40;99.90;;;;;;5071565;28;20483;-65
2021/01/31 02:22:37;;;;;;;19.83;11.45;;;0.40;99.90;;;;;;5069753;28;20059;-64
2021/01/31 02:25:41;;;;;;;16.55;10.63;;;0.40;99.90;;;;;;5071259;28;20071;-65
2021/01/31 02:28:27;;;;;;;17.52;10.57;;;0.40;99.90;;;;;;5061918;28;20049;-64
2021/01/31 02:31:34;;;;;;;18.67;11.05;;;0.40;99.90;;;;;;5070875;28;20070;-65
2021/01/31 02:34:31;;;;;;;18.42;10.13;;;0.40;99.90;;;;;;5062535;28;20098;-63
2021/01/31 02:37:21;;;;;;;19.75;11.18;;;0.40;99.90;;;;;;5071000;28;20051;-63
2021/01/31 02:39:53;;;;;;;19.30;11.50;;;0.40;99.90;;;;;;5071314;28;20044;-63
2021/01/31 02:42:31;;;;;;;19.55;11.32;;;0.50;99.90;;;;;;5070546;28;20048;-64
2021/01/31 02:45:14;;;;;;;21.13;12.02;;;0.40;99.90;;;;;;5070972;28;20383;-63
2021/01/31 02:47:48;;;;;;;25.13;13.27;;;0.40;99.90;;;;;;5070184;28;20047;-64
2021/01/31 02:50:32;;;;;;;20.55;11.05;;;0.40;99.90;;;;;;5060649;28;20053;-64
2021/01/31 02:53:23;;;;;;;17.58;10.40;;;0.40;99.90;;;;;;5070835;28;20562;-64
2021/01/31 02:56:10;;;;;;;18.35;10.38;;;0.40;99.90;;;;;;5070356;28;20059;-64
2021/01/31 02:58:47;;;;;;;19.98;10.75;;;0.40;99.90;;;;;;5070755;28;20053;-64
2021/01/31 03:01:20;;;;;;;17.45;10.05;;;0.40;99.90;;;;;;5070279;28;20057;-63
2021/01/31 03:03:59;;;;;;;19.33;10.98;;;0.40;99.90;;;;;;5070863;28;20037;-65
2021/01/31 03:06:31;;;;;;;20.92;11.23;;;0.50;99.90;;;;;;5070372;28;20535;-64
2021/01/31 03:09:05;;;;;;;17.70;10.70;;;0.50;99.90;;;;;;5071182;28;20040;-64
2021/01/31 03:11:40;;;;;;;20.98;11.77;;;0.50;99.90;;;;;;5057319;28;20476;-64
2021/01/31 03:14:15;;;;;;;19.33;11.13;;;0.50;99.90;;;;;;5058589;28;20487;-65
2021/01/31 03:16:50;;;;;;;18.27;10.57;;;0.50;99.90;;;;;;5068100;28;20123;-64
2021/01/31 03:19:51;;;;;;;19.23;10.98;;;0.50;99.90;;;;;;5058805;28;20044;-64
2021/01/31 03:22:25;;;;;;;18.27;11.43;;;0.50;99.90;;;;;;5050944;28;20403;-64
2021/01/31 03:24:57;;;;;;;19.45;11.20;;;0.50;99.90;;;;;;5069174;28;20055;-62
2021/01/31 03:27:30;;;;;;;18.10;10.88;;;0.50;99.90;;;;;;5070392;28;20064;-64
2021/01/31 03:29:56;;;;;;;21.83;11.73;;;0.60;99.90;;;;;;5070734;28;20782;-64
2021/01/31 03:32:40;;;;;;;18.17;10.93;;;0.60;99.90;;;;;;5070153;28;20430;-64
2021/01/31 03:35:14;;;;;;;19.75;11.35;;;0.60;99.90;;;;;;5070820;28;20052;-64
2021/01/31 03:37:48;;;;;;;18.02;11.18;;;0.60;99.90;;;;;;5070303;28;20048;-64
2021/01/31 03:40:16;;;;;;;19.13;11.20;;;0.50;99.90;;;;;;5070247;28;20055;-63
2021/01/31 03:42:44;;;;;;;20.00;10.85;;;0.50;99.90;;;;;;5069443;28;20590;-63
2021/01/31 03:45:14;;;;;;;21.98;12.85;;;0.50;99.90;;;;;;5072272;28;20083;-63
2021/01/31 03:48:05;;;;;;;20.33;11.45;;;0.50;99.90;;;;;;5074114;28;20044;-64
2021/01/31 03:50:32;;;;;;;21.90;12.38;;;0.50;99.90;;;;;;5066350;28;20052;-63
2021/01/31 03:52:59;;;;;;;18.60;10.85;;;0.40;99.90;;;;;;5073470;28;20053;-64
2021/01/31 03:55:26;;;;;;;18.70;11.27;;;0.40;99.90;;;;;;5074002;28;20052;-64
2021/01/31 03:58:05;;;;;;;18.85;11.15;;;0.40;99.90;;;;;;5072839;28;20040;-64
2021/01/31 04:00:43;;;;;;;19.10;10.80;;;0.40;99.90;;;;;;5064998;28;20787;-64
2021/01/31 04:03:18;;;;;;;17.70;10.82;;;0.50;99.90;;;;;;5073565;28;20395;-63
2021/01/31 04:05:55;;;;;;;19.15;10.93;;;0.50;99.90;;;;;;5062487;28;20063;-64
2021/01/31 04:08:23;;;;;;;18.95;11.25;;;0.50;99.90;;;;;;5073968;28;20045;-66
2021/01/31 04:10:49;;;;;;;19.08;11.60;;;0.40;99.90;;;;;;5072908;28;20048;-63
2021/01/31 04:13:18;;;;;;;19.35;10.98;;;0.40;99.90;;;;;;5072855;28;20552;-63
2021/01/31 04:15:48;;;;;;;19.42;11.27;;;0.50;99.90;;;;;;5073423;28;20089;-65
2021/01/31 04:18:17;;;;;;;19.83;11.07;;;0.50;99.90;;;;;;5073077;28;20497;-65
2021/01/31 04:20:46;;;;;;;20.30;10.88;;;0.50;99.90;;;;;;5073460;28;20040;-63
2021/01/31 04:23:13;;;;;;;19.85;11.85;;;0.50;99.90;;;;;;5070270;28;20695;-63
2021/01/31 04:25:41;;;;;;;20.80;11.10;;;0.50;99.90;;;;;;5071227;28;20469;-63
2021/01/31 04:28:10;;;;;;;17.40;11.10;;;0.50;99.90;;;;;;5073347;28;20106;-64
2021/01/31 04:30:41;;;;;;;18.67;11.00;;;0.50;99.90;;;;;;5073675;28;20466;-64
2021/01/31 04:33:09;;;;;;;20.17;11.32;;;0.50;99.90;;;;;;5073369;28;20082;-64
2021/01/31 04:35:36;;;;;;;20.45;12.00;;;0.50;99.90;;;;;;5073458;28;20044;-63
2021/01/31 04:38:03;;;;;;;18.80;11.25;;;0.50;99.90;;;;;;5071997;28;20055;-64
2021/01/31 04:40:31;;;;;;;21.70;12.65;;;0.50;99.90;;;;;;5069976;28;20045;-64
2021/01/31 04:43:01;;;;;;;23.55;12.65;;;0.50;99.90;;;;;;5072422;28;20445;-64
2021/01/31 04:45:28;;;;;;;21.67;12.25;;;0.50;99.90;;;;;;5067600;28;20415;-64
2021/01/31 04:48:19;;;;;;;19.73;11.88;;;0.50;99.90;;;;;;5068074;28;20049;-64
2021/01/31 04:51:07;;;;;;;20.42;11.55;;;0.50;99.90;;;;;;5067566;28;20052;-64
2021/01/31 04:53:49;;;;;;;25.33;12.50;;;0.50;99.90;;;;;;5053137;28;20067;-64
2021/01/31 04:56:28;;;;;;;20.83;12.02;;;0.40;99.90;;;;;;5064683;28;20059;-64
2021/01/31 04:59:22;;;;;;;20.77;11.38;;;0.40;99.90;;;;;;5072509;28;20135;-64
2021/01/31 05:01:54;;;;;;;19.15;11.05;;;0.40;99.90;;;;;;5059728;28;20040;-64
2021/01/31 05:04:22;;;;;;;;;;;0.40;99.90;;;;;;5073484;28;20048;-64
2021/01/31 05:06:55;;;;;;;20.23;11.30;;;0.40;99.90;;;;;;5064927;28;20256;-64
2021/01/31 05:09:24;;;;;;;23.50;13.07;;;0.40;99.90;;;;;;5072618;28;20483;-64
2021/01/31 05:12:14;;;;;;;20.23;11.63;;;0.30;99.90;;;;;;5068393;28;20053;-64
2021/01/31 05:15:06;;;;;;;19.05;12.30;;;0.40;99.90;;;;;;5071582;28;20398;-64
2021/01/31 05:17:33;;;;;;;21.65;11.80;;;0.40;99.90;;;;;;5064656;28;20044;-64
2021/01/31 05:20:04;;;;;;;23.30;12.43;;;0.40;99.90;;;;;;5071949;28;20067;-64
2021/01/31 05:22:35;;;;;;;21.48;12.63;;;0.40;99.90;;;;;;5060986;28;20075;-64
2021/01/31 05:25:02;;;;;;;25.25;12.60;;;0.40;99.90;;;;;;5072615;28;20052;-64
2021/01/31 05:27:33;;;;;;;20.33;11.93;;;0.40;99.90;;;;;;5057612;28;20040;-64
2021/01/31 05:29:59;;;;;;;18.98;11.68;;;0.40;99.90;;;;;;5072569;28;20071;-64
2021/01/31 05:32:26;;;;;;;20.58;11.13;;;0.50;99.90;;;;;;5059293;28;20041;-63
2021/01/31 05:34:58;;;;;;;22.25;13.20;;;0.40;99.90;;;;;;5071842;28;20486;-63
2021/01/31 05:37:25;;;;;;;21.63;12.75;;;0.40;99.90;;;;;;5071715;28;20052;-63
2021/01/31 05:40:05;;;;;;;23.98;12.68;;;0.50;99.90;;;;;;5072291;28;20463;-63
2021/01/31 05:42:39;;;;;;;22.77;12.40;;;0.40;99.90;;;;;;5071525;28;20053;-63
2021/01/31 05:45:20;;;;;;;21.70;13.00;;;0.40;99.90;;;;;;5058695;28;20052;-64
2021/01/31 05:47:49;;;;;;;23.33;12.88;;;0.40;99.90;;;;;;5071317;28;20045;-63
2021/01/31 05:50:30;;;;;;;21.80;12.35;;;0.30;99.90;;;;;;5063077;28;20071;-63
2021/01/31 05:52:57;;;;;;;23.00;13.43;;;0.30;99.90;;;;;;5071251;28;20562;-63
2021/01/31 05:55:32;;;;;;;25.58;13.52;;;0.30;99.90;;;;;;5071584;28;20641;-64
2021/01/31 05:58:20;;;;;;;25.42;14.13;;;0.30;99.90;;;;;;5059109;28;20147;-64
2021/01/31 06:01:10;;;;;;;23.67;13.13;;;0.30;99.90;;;;;;5069687;28;20040;-64
2021/01/31 06:03:37;;;;;;;24.45;13.30;;;0.30;99.90;;;;;;5071491;28;20051;-64
2021/01/31 06:06:24;;;;;;;21.55;12.27;;;0.30;99.90;;;;;;5071006;28;20048;-64
2021/01/31 06:08:52;;;;;;;25.00;13.60;;;0.30;99.90;;;;;;5069613;28;20411;-64
2021/01/31 06:11:29;;;;;;;21.52;12.45;;;0.30;99.90;;;;;;5070554;28;20551;-64
2021/01/31 06:14:28;;;;;;;21.67;12.40;;;0.40;99.90;;;;;;5070915;28;20052;-64
2021/01/31 06:17:14;;;;;;;21.83;12.68;;;0.40;99.90;;;;;;5069515;28;20054;-64
2021/01/31 06:19:43;;;;;;;24.50;13.52;;;0.40;99.90;;;;;;5071191;28;20075;-64
2021/01/31 06:22:13;;;;;;;19.98;11.82;;;0.30;99.90;;;;;;5068303;28;20072;-64
2021/01/31 06:24:47;;;;;;;24.50;13.52;;;0.30;99.90;;;;;;5071654;28;20429;-63
2021/01/31 06:27:32;;;;;;;20.55;12.05;;;0.30;99.90;;;;;;5068132;28;20058;-64
2021/01/31 06:30:06;;;;;;;25.27;13.73;;;0.30;99.90;;;;;;5063572;28;20044;-64
2021/01/31 06:32:34;;;;;;;26.35;13.82;;;0.30;99.90;;;;;;5068088;28;20040;-64
2021/01/31 06:35:06;;;;;;;22.25;13.60;;;0.30;99.90;;;;;;5069350;28;20048;-64
2021/01/31 06:37:42;;;;;;;23.50;13.43;;;0.30;99.90;;;;;;5069186;28;20048;-64
2021/01/31 06:40:17;;;;;;;24.10;12.85;;;0.30;99.90;;;;;;5071121;28;20048;-64
2021/01/31 06:42:55;;;;;;;24.95;13.50;;;0.30;99.90;;;;;;5069746;28;20052;-63
2021/01/31 06:45:45;;;;;;;23.95;14.02;;;0.30;99.90;;;;;;5070178;28;20052;-63
2021/01/31 06:48:51;;;;;;;25.55;12.77;;;0.30;99.90;;;;;;5064314;28;20052;-63
2021/01/31 06:51:45;;;;;;;26.30;14.07;;;0.30;99.90;;;;;;5059674;28;20044;-63
2021/01/31 06:54:30;;;;;;;23.88;13.75;;;0.30;99.90;;;;;;5060117;28;20376;-63
2021/01/31 06:57:03;;;;;;;26.20;14.27;;;0.30;99.90;;;;;;5069377;28;20091;-63
2021/01/31 06:59:43;;;;;;;26.00;14.70;;;0.30;99.90;;;;;;5052235;28;20045;-63
2021/01/31 07:02:33;;;;;;;26.25;14.10;;;0.30;99.90;;;;;;5049895;28;20510;-64
2021/01/31 07:05:22;;;;;;;23.45;13.75;;;0.30;99.90;;;;;;5054111;28;20435;-63
2021/01/31 07:08:11;;;;;;;22.52;13.07;;;0.40;99.90;;;;;;5068697;28;20055;-64
2021/01/31 07:11:00;;;;;;;23.58;13.20;;;0.40;99.90;;;;;;5056362;28;20086;-63
2021/01/31 07:13:46;;;;;;;26.33;14.40;;;0.40;99.90;;;;;;5066383;28;20049;-63
2021/01/31 07:16:18;;;;;;;26.73;13.82;;;0.40;99.90;;;;;;5068862;28;20049;-64
2021/01/31 07:18:50;;;;;;;24.80;13.95;;;0.40;99.90;;;;;;5070556;28;20049;-62
2021/01/31 07:21:27;;;;;;;28.08;13.75;;;0.40;99.90;;;;;;5071872;28;20056;-64
2021/01/31 07:23:58;;;;;;;27.20;14.05;;;0.40;99.90;;;;;;5073804;28;20044;-64
2021/01/31 07:27:00;;;;;;;26.92;15.15;;;0.40;99.90;;;;;;5075032;28;20089;-64
2021/01/31 07:29:34;;;;;;;24.42;13.93;;;0.50;99.90;;;;;;5075591;28;20049;-64
2021/01/31 07:32:05;;;;;;;25.60;13.93;;;0.50;99.90;;;;;;5059818;28;20048;-64
2021/01/31 07:34:40;;;;;;;29.60;15.00;;;0.50;99.90;;;;;;5074940;28;20049;-64
2021/01/31 07:37:10;;;;;;;26.70;14.20;;;0.50;99.90;;;;;;5074322;28;20059;-64
2021/01/31 07:39:52;;;;;;;24.30;13.35;;;0.60;99.90;;;;;;5074479;28;20044;-65
2021/01/31 07:42:21;;;;;;;24.60;12.82;;;0.60;99.90;;;;;;5073672;28;20553;-64
2021/01/31 07:44:56;;;;;;;22.83;14.07;;;0.70;99.90;;;;;;5074227;28;20045;-64
2021/01/31 07:47:23;;;;;;;24.77;13.27;;;0.70;99.90;;;;;;5073732;28;20044;-65
2021/01/31 07:49:56;;;;;;;27.10;13.85;;;0.70;99.90;;;;;;5072819;28;20377;-65
2021/01/31 07:52:25;;;;;;;26.38;13.95;;;0.80;99.90;;;;;;5064432;28;20052;-65
2021/01/31 07:55:18;;;;;;;28.15;15.68;;;0.90;99.90;;;;;;5073934;28;20447;-65
2021/01/31 07:58:20;;;;;;;22.95;13.15;;;0.90;99.90;;;;;;5060296;28;20064;-65
2021/01/31 08:00:51;;;;;;;;;;;1.00;99.90;;;;;;5051771;28;20067;-65
2021/01/31 08:03:29;;;;;;;21.85;12.63;;;0.90;99.90;;;;;;5050849;28;19927;-64
2021/01/31 08:06:17;;;;;;;20.65;12.15;;;0.90;99.90;;;;;;5051171;28;20044;-64
2021/01/31 08:08:55;;;;;;;23.20;12.77;;;0.90;99.90;;;;;;5051400;28;20072;-65
2021/01/31 08:11:36;;;;;;;24.33;12.95;;;0.90;99.90;;;;;;5050978;28;20459;-66
2021/01/31 08:14:04;;;;;;;23.48;13.27;;;1.00;99.90;;;;;;5050666;28;20526;-66
2021/01/31 08:16:48;;;;;;;24.27;12.70;;;1.00;99.90;;;;;;5049735;28;20052;-65
2021/01/31 08:19:17;;;;;;;22.80;12.38;;;1.10;99.90;;;;;;5051317;28;20132;-65
2021/01/31 08:22:04;;;;;;;27.38;13.80;;;1.20;99.90;;;;;;5050804;28;20107;-65
2021/01/31 08:25:10;;;;;;;21.20;13.25;;;1.20;99.90;;;;;;5051009;28;20428;-65
2021/01/31 08:27:38;;;;;;;23.75;12.60;;;1.30;99.90;;;;;;5010206;28;20088;-65
2021/01/31 08:30:16;;;;;;;22.25;12.70;;;1.30;99.90;;;;;;5010842;28;20046;-65
2021/01/31 08:32:58;;;;;;;22.60;13.18;;;1.30;99.90;;;;;;5009996;28;20157;-65
2021/01/31 08:35:27;;;;;;;21.23;12.20;;;1.30;99.90;;;;;;5011000;28;20539;-65
2021/01/31 08:38:24;;;;;;;22.38;12.27;;;1.40;99.90;;;;;;5010204;28;20050;-65
2021/01/31 08:41:00;;;;;;;24.70;13.15;;;1.50;99.90;;;;;;5007287;28;20477;-65
2021/01/31 08:43:35;;;;;;;23.88;13.70;;;1.50;99.90;;;;;;5009620;28;20042;-65
2021/01/31 08:46:20;;;;;;;28.75;14.68;;;1.60;99.90;;;;;;5009508;28;20050;-65
2021/01/31 08:48:55;;;;;;;23.13;13.93;;;1.70;99.90;;;;;;5010818;28;20057;-65
2021/01/31 08:51:23;;;;;;;21.67;12.88;;;1.80;99.90;;;;;;5009034;28;20049;-65
2021/01/31 08:54:13;;;;;;;22.08;12.93;;;1.90;99.90;;;;;;5010374;28;20531;-65
2021/01/31 08:56:43;;;;;;;21.63;12.40;;;2.00;99.90;;;;;;5008826;28;20081;-64
2021/01/31 08:59:18;;;;;;;23.55;12.77;;;2.10;99.90;;;;;;5060865;28;20056;-65
2021/01/31 09:01:47;;;;;;;23.25;13.48;;;2.20;99.90;;;;;;5069912;28;20057;-65
2021/01/31 09:04:16;;;;;;;21.67;13.30;;;2.20;99.90;;;;;;5072722;28;20048;-65
2021/01/31 09:06:44;;;;;;;24.08;13.02;;;2.30;99.90;;;;;;5071867;28;20147;-65
2021/01/31 09:09:25;;;;;;;22.38;13.25;;;2.30;99.90;;;;;;5072787;28;20053;-66
2021/01/31 09:12:02;;;;;;;25.35;12.70;;;2.50;99.90;;;;;;5069232;28;20052;-64
2021/01/31 09:14:36;;;;;;;23.63;12.85;;;2.60;99.90;;;;;;5070369;28;20053;-64
2021/01/31 09:17:11;;;;;;;21.88;13.23;;;2.70;99.90;;;;;;5071385;28;20045;-65
2021/01/31 09:19:38;;;;;;;21.60;12.63;;;2.70;99.90;;;;;;5071504;28;20056;-65
2021/01/31 09:22:15;;;;;;;23.60;12.35;;;2.80;99.90;;;;;;5071452;28;20064;-66
2021/01/31 09:24:45;;;;;;;21.20;12.70;;;2.90;99.90;;;;;;5072533;28;20050;-67
2021/01/31 09:27:24;;;;;;;22.17;13.15;;;3.00;99.90;;;;;;5071322;28;20040;-68
2021/01/31 09:29:59;;;;;;;25.65;13.82;;;2.90;99.90;;;;;;5072322;28;20045;-66
2021/01/31 09:32:31;;;;;;;23.13;13.10;;;3.00;99.90;;;;;;5070163;28;20139;-67
2021/01/31 09:34:59;;;;;;;25.90;14.07;;;3.10;99.90;;;;;;5072416;28;20063;-66
2021/01/31 09:37:31;;;;;;;26.35;14.70;;;3.20;99.90;;;;;;5071372;28;20135;-67
2021/01/31 09:40:00;;;;;;;32.10;17.08;;;3.20;99.90;;;;;;5071029;28;20062;-66
2021/01/31 09:42:35;;;;;;;24.42;14.70;;;3.30;99.90;;;;;;5071170;28;20044;-66
2021/01/31 09:45:33;;;;;;;29.05;16.63;;;3.40;99.90;;;;;;5071341;28;20051;-66
2021/01/31 09:48:01;;;;;;;20.85;12.52;;;3.70;99.90;;;;;;5070604;28;20044;-66
2021/01/31 09:50:28;;;;;;;21.83;13.23;;;3.80;99.90;;;;;;5070880;28;20051;-66
2021/01/31 09:52:55;;;;;;;22.75;13.68;;;3.90;99.90;;;;;;5070950;28;20083;-67
2021/01/31 09:55:42;;;;;;;20.65;12.32;;;3.90;99.90;;;;;;5070801;28;20109;-66
2021/01/31 09:58:23;;;;;;;25.77;14.20;;;4.00;99.90;;;;;;5065782;28;20491;-67
2021/01/31 10:00:51;;;;;;;23.27;13.85;;;4.00;99.90;;;;;;5070485;28;20056;-66
2021/01/31 10:03:26;;;;;;;23.48;14.23;;;4.10;99.90;;;;;;5070573;28;20073;-67
2021/01/31 10:06:16;;;;;;;22.27;14.13;;;4.30;99.90;;;;;;5069239;28;20045;-67
2021/01/31 10:09:01;;;;;;;23.67;14.85;;;4.40;99.90;;;;;;5070797;28;20044;-67
2021/01/31 10:11:45;;;;;;;32.88;18.15;;;4.50;99.90;;;;;;5066670;28;20058;-67
2021/01/31 10:14:33;;;;;;;24.52;15.23;;;4.80;99.90;;;;;;5064250;28;20410;-67
2021/01/31 10:17:19;;;;;;;21.70;13.98;;;5.00;99.90;;;;;;5065864;28;20053;-67
2021/01/31 10:19:46;;;;;;;23.35;13.35;;;5.20;99.90;;;;;;5070799;28;20103;-66
2021/01/31 10:22:27;;;;;;;23.17;14.80;;;5.40;99.90;;;;;;5069219;28;20405;-65
2021/01/31 10:24:54;;;;;;;23.92;14.27;;;5.40;99.90;;;;;;5067108;28;20062;-66
2021/01/31 10:27:24;;;;;;;22.35;13.95;;;5.40;99.90;;;;;;5069472;28;20558;-66
2021/01/31 10:29:52;;;;;;;22.65;13.18;;;5.50;99.90;;;;;;5068792;28;20036;-66
2021/01/31 10:32:24;;;;;;;23.35;14.05;;;5.60;99.90;;;;;;5063788;28;20083;-66
2021/01/31 10:34:52;;;;;;;21.83;13.13;;;5.70;99.90;;;;;;5059739;28;20047;-65
2021/01/31 10:37:30;;;;;;;22.42;13.48;;;5.70;99.90;;;;;;5069279;28;20720;-66
2021/01/31 10:39:56;;;;;;;23.35;13.40;;;5.70;99.90;;;;;;5070370;28;20474;-66
2021/01/31 10:42:23;;;;;;;27.75;13.13;;;5.70;99.90;;;;;;5069253;28;20578;-68
2021/01/31 10:44:50;;;;;;;20.33;13.35;;;5.60;99.90;;;;;;5067077;28;20424;-66
2021/01/31 10:47:16;;;;;;;20.60;13.77;;;5.90;99.90;;;;;;5066785;28;20047;-66
2021/01/31 10:49:43;;;;;;;23.10;12.98;;;5.90;99.90;;;;;;5066086;28;20052;-66
2021/01/31 10:52:10;;;;;;;20.60;13.35;;;5.80;99.90;;;;;;5064997;28;20669;-65
2021/01/31 10:54:37;;;;;;;19.65;12.40;;;6.10;99.90;;;;;;5063509;28;20697;-66
2021/01/31 10:57:04;;;;;;;18.13;11.70;;;6.30;99.90;;;;;;5065869;28;20048;-66
2021/01/31 10:59:30;;;;;;;18.15;12.10;;;7.30;99.90;;;;;;5067229;28;20040;-66
2021/01/31 11:01:57;;;;;;;19.17;12.20;;;8.50;99.90;;;;;;5067738;28;20048;-66
2021/01/31 11:04:23;;;;;;;18.70;12.75;;;9.00;99.90;;;;;;5069571;28;20053;-67
2021/01/31 11:06:50;;;;;;;18.92;12.60;;;9.00;99.90;;;;;;5068538;28;20036;-66
2021/01/31 11:09:17;;;;;;;18.27;12.93;;;9.00;99.90;;;;;;5069661;28;20036;-65
2021/01/31 11:11:43;;;;;;;19.05;13.73;;;9.10;99.90;;;;;;5058031;28;20073;-66
2021/01/31 11:14:10;;;;;;;19.95;13.55;;;8.90;99.90;;;;;;5070169;28;20049;-67
2021/01/31 11:16:37;;;;;;;17.90;13.15;;;8.60;99.90;;;;;;5059650;28;20049;-65
2021/01/31 11:19:03;;;;;;;26.35;16.98;;;8.70;99.90;;;;;;5062654;28;20048;-65
2021/01/31 11:21:30;;;;;;;17.83;14.10;;;8.80;99.90;;;;;;5068200;28;20044;-65
2021/01/31 11:23:56;;;;;;;20.38;14.00;;;8.70;99.90;;;;;;5070318;28;20056;-65
2021/01/31 11:26:24;;;;;;;18.10;14.45;;;8.50;99.90;;;;;;5067238;28;20052;-65
2021/01/31 11:28:51;;;;;;;18.20;13.82;;;8.50;99.90;;;;;;5068874;28;20497;-66
2021/01/31 11:31:18;;;;;;;17.30;13.77;;;9.00;99.90;;;;;;5068547;28;20048;-66
2021/01/31 11:33:45;;;;;;;19.15;13.45;;;9.20;99.90;;;;;;5068739;28;20534;-65
2021/01/31 11:36:12;;;;;;;16.77;12.73;;;9.40;99.90;;;;;;5069265;28;20055;-66
2021/01/31 11:38:38;;;;;;;18.15;13.45;;;9.00;99.90;;;;;;5069085;28;20047;-66
2021/01/31 11:41:05;;;;;;;18.95;13.75;;;8.90;99.90;;;;;;5069572;28;20401;-66
2021/01/31 11:43:31;;;;;;;17.10;13.00;;;9.00;99.90;;;;;;5070227;28;20040;-65
2021/01/31 11:45:58;;;;;;;16.63;13.18;;;9.10;99.90;;;;;;5070488;28;20053;-65
2021/01/31 11:48:25;;;;;;;18.58;13.90;;;8.80;99.90;;;;;;5070936;28;20060;-66
2021/01/31 11:50:52;;;;;;;20.85;14.15;;;8.60;99.90;;;;;;5059307;28;20135;-66
2021/01/31 11:53:18;;;;;;;17.88;13.40;;;8.60;99.90;;;;;;5067443;28;20052;-67
2021/01/31 11:55:46;;;;;;;15.90;12.88;;;9.30;99.90;;;;;;5063154;28;20053;-66
2021/01/31 11:58:13;;;;;;;17.90;13.20;;;9.40;99.90;;;;;;5064832;28;20123;-66
2021/01/31 12:00:40;;;;;;;19.95;13.93;;;9.60;99.90;;;;;;5068177;28;20102;-66
2021/01/31 12:03:08;;;;;;;15.07;12.48;;;9.90;99.90;;;;;;5068808;28;20142;-66
2021/01/31 12:05:35;;;;;;;17.00;12.68;;;10.70;99.90;;;;;;5070640;28;20048;-66
2021/01/31 12:08:02;;;;;;;15.57;12.80;;;11.30;99.90;;;;;;5070780;28;20128;-66
2021/01/31 12:10:29;;;;;;;17.40;13.68;;;12.00;99.90;;;;;;5073382;28;20521;-66
2021/01/31 12:12:56;;;;;;;17.38;13.65;;;12.80;99.90;;;;;;5072030;28;20080;-66
2021/01/31 12:15:22;;;;;;;16.95;13.60;;;13.00;99.90;;;;;;5072350;28;20044;-65
2021/01/31 12:17:49;;;;;;;19.05;14.25;;;13.30;99.90;;;;;;5069692;28;20060;-65
2021/01/31 12:20:16;;;;;;;16.67;12.60;;;13.10;99.90;;;;;;5072140;28;20052;-65
2021/01/31 12:22:43;;;;;;;16.83;13.15;;;13.10;99.90;;;;;;5060070;28;20051;-65
2021/01/31 12:25:13;;;;;;;17.42;13.45;;;12.60;99.90;;;;;;5073053;28;20040;-66
2021/01/31 12:27:45;;;;;;;17.48;14.15;;;11.80;99.90;;;;;;5072609;28;20044;-65
2021/01/31 12:30:12;;;;;;;18.15;14.07;;;11.50;99.90;;;;;;5072435;28;20054;-65
2021/01/31 12:32:39;;;;;;;16.17;12.80;;;11.50;99.90;;;;;;5060789;28;20050;-65
2021/01/31 12:35:06;;;;;;;21.75;15.93;;;12.10;99.90;;;;;;5064713;28;20048;-64
2021/01/31 12:37:33;;;;;;;23.05;15.43;;;13.30;99.90;;;;;;5061982;28;20051;-64
2021/01/31 12:39:59;;;;;;;16.05;13.68;;;13.70;99.90;;;;;;5073273;28;20056;-64
2021/01/31 12:42:26;;;;;;;17.25;13.50;;;14.30;99.90;;;;;;5072375;28;20503;-65
2021/01/31 12:44:53;;;;;;;15.45;13.88;;;14.60;99.90;;;;;;5072133;28;20040;-65
2021/01/31 12:47:19;;;;;;;17.63;14.98;;;14.70;98.20;;;;;;5072756;28;20415;-64
2021/01/31 12:49:46;;;;;;;15.57;13.90;;;13.60;98.90;;;;;;5072082;28;20407;-65
2021/01/31 12:52:13;;;;;;;16.75;14.73;;;12.50;99.90;;;;;;5072349;28;20061;-65
2021/01/31 12:54:40;;;;;;;16.02;13.40;;;11.70;99.90;;;;;;5072460;28;20052;-65
2021/01/31 12:57:06;;;;;;;19.35;15.70;;;11.80;99.90;;;;;;5070551;28;20053;-65
2021/01/31 12:59:33;;;;;;;17.55;15.07;;;11.80;99.90;;;;;;5072651;28;20059;-65
2021/01/31 13:02:00;;;;;;;22.83;18.80;;;12.00;99.90;;;;;;5072332;28;20056;-64
2021/01/31 13:04:26;;;;;;;16.77;14.85;;;11.80;99.90;;;;;;5072331;28;20154;-65
2021/01/31 13:06:53;;;;;;;17.90;15.30;;;11.50;99.90;;;;;;5072152;28;20041;-65
2021/01/31 13:09:19;;;;;;;15.70;13.70;;;12.00;99.90;;;;;;5072286;28;20051;-64